Time;durP1;ratioP1;P1;durP2;ratioP2;P2;SDS_P1;SDS_P2;PMS_P1;PMS_P2;Temp;Humidity;BMP_temperature;BMP_pressure;BME280_temperature;BME280_humidity;BME280_pressure;Samples;Min_cycle;Max_cycle;Signal;HPM_P1;HPM_P2
2022/10/04 00:02:30;;;;;;;64.00;26.92;;;4.90;99.90;;;;;;6158218;23;20057;-84
2022/10/04 00:05:23;;;;;;;63.38;27.17;;;4.90;99.90;;;;;;6157384;23;20025;-84
2022/10/04 00:08:34;;;;;;;53.72;25.52;;;4.90;99.90;;;;;;6157242;23;20101;-84
2022/10/04 00:11:29;;;;;;;50.05;24.85;;;4.90;99.90;;;;;;6156424;23;20022;-84
2022/10/04 00:14:28;;;;;;;62.03;26.77;;;4.90;99.90;;;;;;6157514;23;20025;-84
2022/10/04 00:17:22;;;;;;;47.55;24.80;;;5.00;99.90;;;;;;6158170;23;20328;-83
2022/10/04 00:20:57;;;;;;;55.63;24.08;;;5.00;99.90;;;;;;6156860;23;20306;-84
2022/10/04 00:23:47;;;;;;;53.42;23.98;;;4.90;99.90;;;;;;6139035;23;20033;-83
2022/10/04 00:26:34;;;;;;;56.88;24.67;;;4.80;99.90;;;;;;6155950;23;20036;-83
2022/10/04 00:29:43;;;;;;;52.75;24.00;;;4.70;99.90;;;;;;6155705;23;20025;-83
2022/10/04 00:32:50;;;;;;;44.15;22.33;;;4.50;99.90;;;;;;6157510;23;20083;-84
2022/10/04 00:35:43;;;;;;;49.70;22.98;;;4.50;99.90;;;;;;6154059;23;20021;-83
2022/10/04 00:38:32;;;;;;;52.00;24.83;;;4.60;99.90;;;;;;6156411;23;20445;-84
2022/10/04 00:41:20;;;;;;;49.03;25.10;;;4.70;99.90;;;;;;6156645;23;20025;-83
2022/10/04 00:44:21;;;;;;;51.80;23.75;;;4.80;99.90;;;;;;6156786;23;20026;-83
2022/10/04 00:47:30;;;;;;;66.35;27.23;;;5.00;99.90;;;;;;6156668;23;20104;-84
2022/10/04 00:50:43;;;;;;;50.85;25.45;;;5.30;99.90;;;;;;6155706;23;20086;-84
2022/10/04 00:53:45;;;;;;;49.55;18.27;;;5.30;99.90;;;;;;6156281;23;20037;-84
2022/10/04 00:56:36;;;;;;;54.87;23.93;;;5.20;99.90;;;;;;6156944;23;20120;-83
2022/10/04 00:59:46;;;;;;;45.72;22.92;;;5.10;99.90;;;;;;6157515;23;20025;-83
2022/10/04 01:02:36;;;;;;;56.15;23.90;;;5.10;99.90;;;;;;6164493;23;20028;-83
2022/10/04 01:05:35;;;;;;;52.65;22.70;;;5.00;99.90;;;;;;6171201;23;20022;-85
2022/10/04 01:08:30;;;;;;;44.08;22.30;;;4.80;99.90;;;;;;6170672;23;20021;-84
2022/10/04 01:11:25;;;;;;;58.25;23.45;;;4.70;99.90;;;;;;6172776;23;20022;-84
2022/10/04 01:14:20;;;;;;;49.35;22.50;;;4.70;99.90;;;;;;6171405;23;20072;-84
2022/10/04 01:17:08;;;;;;;56.65;22.52;;;4.60;99.90;;;;;;6181014;23;20073;-83
2022/10/04 01:19:56;;;;;;;49.50;22.45;;;4.50;99.90;;;;;;6182075;23;20065;-82
2022/10/04 01:22:49;;;;;;;45.53;22.30;;;4.60;99.90;;;;;;6179943;23;20013;-81
2022/10/04 01:25:50;;;;;;;54.03;21.33;;;4.50;99.90;;;;;;6172141;23;20022;-82
2022/10/04 01:28:38;;;;;;;44.85;21.23;;;4.40;99.90;;;;;;6163831;23;20025;-82
2022/10/04 01:31:56;;;;;;;47.63;21.15;;;4.40;99.90;;;;;;6164249;23;20030;-81
2022/10/04 01:35:55;;;;;;;49.72;22.52;;;4.50;99.90;;;;;;6164344;23;20017;-82
2022/10/04 01:38:57;;;;;;;46.20;21.85;;;4.60;99.90;;;;;;6161905;23;20037;-82
2022/10/04 01:46:08;;;;;;;41.53;20.70;;;4.40;99.90;;;;;;6156882;23;20119;-84
2022/10/04 01:49:26;;;;;;;50.90;22.05;;;4.30;99.90;;;;;;6065522;23;20027;-83
2022/10/04 01:53:01;;;;;;;40.53;20.50;;;4.30;99.90;;;;;;6067395;23;20093;-83
2022/10/04 01:57:03;;;;;;;38.72;20.50;;;4.40;99.90;;;;;;6065895;23;20669;-83
2022/10/04 02:00:12;;;;;;;40.75;19.55;;;4.30;99.90;;;;;;6032474;23;20018;-84
2022/10/04 02:03:42;;;;;;;43.55;20.63;;;4.10;99.90;;;;;;6046796;23;20019;-84
2022/10/04 02:07:28;;;;;;;43.30;20.05;;;4.00;99.90;;;;;;6066693;23;20077;-83
2022/10/04 02:10:51;;;;;;;49.75;21.27;;;3.90;99.90;;;;;;6065839;23;20198;-83
2022/10/04 02:14:34;;;;;;;44.42;20.38;;;3.90;99.90;;;;;;6065787;23;20023;-83
2022/10/04 02:18:22;;;;;;;48.00;20.20;;;3.90;99.90;;;;;;6065179;23;20030;-84
2022/10/04 02:21:29;;;;;;;48.97;20.95;;;3.80;99.90;;;;;;6066359;23;20031;-84
2022/10/04 02:24:18;;;;;;;46.78;21.98;;;3.90;99.90;;;;;;6066417;23;20027;-83
2022/10/04 02:27:05;;;;;;;46.95;22.67;;;3.90;99.90;;;;;;6149589;23;20288;-83
2022/10/04 02:30:00;;;;;;;47.55;22.38;;;3.90;99.90;;;;;;6153025;23;20105;-84
2022/10/04 02:33:02;;;;;;;51.35;22.60;;;3.90;99.90;;;;;;6156358;23;20096;-83
2022/10/04 02:35:51;;;;;;;59.78;22.73;;;3.80;99.90;;;;;;6154780;23;20039;-83
2022/10/04 02:38:59;;;;;;;55.38;22.98;;;3.80;99.90;;;;;;6154322;23;20422;-83
2022/10/04 02:41:53;;;;;;;59.75;23.40;;;3.80;99.90;;;;;;6154845;23;20410;-83
2022/10/04 02:44:48;;;;;;;54.85;24.17;;;4.00;99.90;;;;;;6154809;23;20039;-83
2022/10/04 02:47:47;;;;;;;57.35;22.60;;;4.20;99.90;;;;;;6154310;23;20056;-83
2022/10/04 02:50:43;;;;;;;47.15;21.70;;;4.30;99.90;;;;;;6155135;23;20429;-83
2022/10/04 02:53:43;;;;;;;41.58;20.83;;;4.30;99.90;;;;;;6155625;23;20044;-83
2022/10/04 02:56:32;;;;;;;45.38;21.02;;;4.30;99.90;;;;;;6154932;23;20399;-83
2022/10/04 02:59:20;;;;;;;53.20;22.58;;;4.20;99.90;;;;;;6153614;23;20032;-83
2022/10/04 03:02:29;;;;;;;48.85;21.52;;;4.00;99.90;;;;;;6154565;23;20026;-83
2022/10/04 03:05:16;;;;;;;50.85;22.73;;;3.90;99.90;;;;;;6154472;23;20437;-82
2022/10/04 03:08:05;;;;;;;56.30;24.55;;;3.90;99.90;;;;;;6156869;23;20031;-83
2022/10/04 03:10:52;;;;;;;49.63;22.38;;;3.90;99.90;;;;;;6156226;23;20034;-83
2022/10/04 03:13:43;;;;;;;55.35;22.83;;;3.90;99.90;;;;;;6153680;23;20508;-83
2022/10/04 03:16:41;;;;;;;50.45;23.00;;;3.90;99.90;;;;;;6157376;23;20084;-83
2022/10/04 03:19:30;;;;;;;47.80;21.42;;;3.90;99.90;;;;;;6158038;23;20030;-83
2022/10/04 03:22:19;;;;;;;38.55;19.48;;;3.90;99.90;;;;;;6156857;23;20402;-83
2022/10/04 03:25:16;;;;;;;38.65;19.83;;;3.90;99.90;;;;;;6156604;23;20030;-83
2022/10/04 03:28:03;;;;;;;40.90;19.83;;;3.90;99.90;;;;;;6157295;23;20025;-83
2022/10/04 03:30:53;;;;;;;45.35;19.80;;;3.90;99.90;;;;;;6156797;23;20025;-83
2022/10/04 03:33:42;;;;;;;61.72;23.50;;;3.80;99.90;;;;;;6157555;23;20029;-83
2022/10/04 03:37:14;;;;;;;48.95;21.58;;;3.80;99.90;;;;;;6156856;23;20040;-83
2022/10/04 03:40:44;;;;;;;53.63;22.75;;;3.70;99.90;;;;;;6157062;23;20049;-83
2022/10/04 03:44:41;;;;;;;;;;;;;;;;;;;;;
2022/10/04 03:48:10;;;;;;;62.40;23.73;;;3.80;99.90;;;;;;6157166;23;20022;-83
2022/10/04 03:55:35;;;;;;;48.97;21.90;;;4.10;99.90;;;;;;6156150;23;20036;-83
2022/10/04 03:58:54;;;;;;;45.33;20.45;;;4.20;99.90;;;;;;6155751;23;20124;-83
2022/10/04 04:06:25;;;;;;;52.03;23.33;;;4.00;99.90;;;;;;6155918;23;20429;-83
2022/10/04 04:10:00;;;;;;;56.88;23.25;;;3.90;99.90;;;;;;6114130;23;20092;-81
2022/10/04 04:17:16;;;;;;;70.88;24.55;;;3.90;99.90;;;;;;6157419;23;20014;-82
2022/10/04 04:20:50;;;;;;;52.58;23.08;;;3.90;99.90;;;;;;6096506;23;20101;-81
2022/10/04 04:28:36;;;;;;;62.83;26.00;;;4.00;99.90;;;;;;6155164;23;20022;-80
2022/10/04 04:31:59;;;;;;;60.55;23.67;;;4.10;99.90;;;;;;6133456;23;20040;-80
2022/10/04 04:36:03;;;;;;;55.70;23.33;;;4.10;99.90;;;;;;6155569;23;20505;-80
2022/10/04 04:39:47;;;;;;;55.28;25.42;;;4.10;99.90;;;;;;6035525;23;20028;-83
2022/10/04 04:43:01;;;;;;;63.67;24.50;;;4.40;99.90;;;;;;6072935;23;20021;-82
2022/10/04 04:46:14;;;;;;;58.83;23.50;;;4.30;99.90;;;;;;6156399;23;20096;-82
2022/10/04 04:55:56;;;;;;;48.95;23.25;;;4.10;99.90;;;;;;6195332;23;20095;-89
2022/10/04 05:04:20;;;;;;;56.70;26.02;;;4.10;99.90;;;;;;6207089;22;20017;-80
2022/10/04 05:07:18;;;;;;;53.40;25.33;;;4.20;99.90;;;;;;6182545;23;20035;-80
2022/10/04 05:10:22;;;;;;;67.32;26.27;;;4.10;99.90;;;;;;6163820;23;20056;-80
2022/10/04 05:13:43;;;;;;;71.70;28.88;;;4.00;99.90;;;;;;6214470;23;20114;-80
2022/10/04 05:24:46;;;;;;;65.88;26.77;;;3.80;99.90;;;;;;6212730;23;20017;-81
2022/10/04 05:27:54;;;;;;;72.55;28.27;;;3.80;99.90;;;;;;6221625;23;20040;-85
2022/10/04 05:31:45;;;;;;;76.07;29.02;;;4.10;99.90;;;;;;6207010;23;20051;-87
2022/10/04 05:34:53;;;;;;;69.57;26.30;;;4.20;99.90;;;;;;6211484;23;20036;-89
2022/10/04 05:38:06;;;;;;;70.40;28.00;;;4.10;99.90;;;;;;6211638;22;20008;-87
2022/10/04 05:41:21;;;;;;;74.78;30.25;;;4.20;99.90;;;;;;6216940;22;20064;-87
2022/10/04 05:45:00;;;;;;;73.10;29.77;;;4.20;99.90;;;;;;6238232;22;20012;-89
2022/10/04 05:52:34;;;;;;;57.03;26.60;;;4.20;99.90;;;;;;6227486;23;20020;-90
2022/10/04 05:56:24;;;;;;;57.55;26.23;;;4.30;99.90;;;;;;6203276;23;20327;-87
2022/10/04 05:59:37;;;;;;;49.47;22.45;;;4.30;99.90;;;;;;6205077;23;20024;-87
2022/10/04 06:02:30;;;;;;;68.72;28.60;;;4.40;99.90;;;;;;6198571;23;20024;-87
2022/10/04 06:05:31;;;;;;;59.35;28.60;;;4.50;99.90;;;;;;6213514;23;20024;-88
2022/10/04 06:08:36;;;;;;;63.45;28.10;;;4.50;99.90;;;;;;6214745;23;20025;-87
2022/10/04 06:11:42;;;;;;;59.00;28.05;;;4.50;99.90;;;;;;6207802;23;20035;-87
2022/10/04 06:14:50;;;;;;;60.33;26.95;;;4.60;99.90;;;;;;6215941;23;20159;-85
2022/10/04 06:17:43;;;;;;;63.30;27.05;;;4.60;99.90;;;;;;6194574;23;20382;-86
2022/10/04 06:20:46;;;;;;;59.95;27.45;;;4.70;99.90;;;;;;6197559;23;20469;-88
2022/10/04 06:23:41;;;;;;;60.95;28.38;;;4.70;99.90;;;;;;6213188;23;20020;-84
2022/10/04 06:26:58;;;;;;;60.22;27.88;;;4.80;99.90;;;;;;6192053;23;20024;-85
2022/10/04 06:30:43;;;;;;;62.63;26.25;;;4.90;99.90;;;;;;6194892;23;20039;-86
2022/10/04 06:34:21;;;;;;;66.88;27.45;;;5.10;99.90;;;;;;6199959;23;20035;-89
2022/10/04 06:37:40;;;;;;;68.05;28.65;;;5.30;99.90;;;;;;6197071;23;20048;-88
2022/10/04 06:40:42;;;;;;;61.67;28.65;;;5.50;99.90;;;;;;6194192;23;20100;-87
2022/10/04 06:43:45;;;;;;;66.20;31.50;;;5.70;99.90;;;;;;6194339;23;20092;-89
2022/10/04 06:46:51;;;;;;;61.42;31.73;;;5.80;99.90;;;;;;6193321;23;20021;-88
2022/10/04 06:50:15;;;;;;;65.47;32.05;;;5.80;99.90;;;;;;6207685;23;20029;-87
2022/10/04 06:53:21;;;;;;;70.20;33.97;;;6.00;99.90;;;;;;6192897;23;20098;-88
2022/10/04 06:56:35;;;;;;;85.10;39.65;;;6.20;99.90;;;;;;6214260;23;20100;-88
2022/10/04 06:59:43;;;;;;;85.63;37.20;;;6.20;99.90;;;;;;6214697;23;20021;-83
2022/10/04 07:02:50;;;;;;;87.75;37.38;;;6.10;99.90;;;;;;6215384;23;20020;-84
2022/10/04 07:06:03;;;;;;;71.93;36.88;;;6.20;99.90;;;;;;6192703;23;20103;-84
2022/10/04 07:08:58;;;;;;;80.32;38.47;;;6.20;99.90;;;;;;6193236;23;20110;-83
2022/10/04 07:11:53;;;;;;;89.13;37.70;;;6.40;99.90;;;;;;6214212;23;20099;-88
2022/10/04 07:14:49;;;;;;;98.55;40.80;;;6.50;99.90;;;;;;6197093;23;20108;-87
2022/10/04 07:17:43;;;;;;;96.05;38.25;;;6.60;99.90;;;;;;6195023;23;20443;-86
2022/10/04 07:20:35;;;;;;;78.25;36.67;;;6.60;99.90;;;;;;6192734;23;20031;-88
2022/10/04 07:23:30;;;;;;;81.78;38.13;;;6.80;99.90;;;;;;6194505;23;20120;-87
2022/10/04 07:26:47;;;;;;;77.07;36.72;;;6.90;99.90;;;;;;6216453;23;20032;-85
2022/10/04 07:29:40;;;;;;;88.03;40.42;;;7.10;99.90;;;;;;6215432;23;20320;-85
2022/10/04 07:32:42;;;;;;;82.10;38.05;;;7.30;99.90;;;;;;6194906;23;20024;-86
2022/10/04 07:35:43;;;;;;;78.65;38.33;;;7.40;99.90;;;;;;6215353;23;20029;-86
2022/10/04 07:38:36;;;;;;;88.28;38.03;;;7.50;99.90;;;;;;6193273;23;20035;-86
2022/10/04 07:42:01;;;;;;;80.22;36.15;;;7.70;99.90;;;;;;6194834;23;20047;-84
2022/10/04 07:45:19;;;;;;;70.28;33.58;;;8.00;99.90;;;;;;6216073;23;20027;-85
2022/10/04 07:48:14;;;;;;;55.30;29.90;;;8.40;99.90;;;;;;6217288;23;20101;-86
2022/10/04 07:51:30;;;;;;;60.38;28.92;;;8.80;99.90;;;;;;6193588;23;20020;-86
2022/10/04 07:54:31;;;;;;;58.78;28.27;;;9.00;99.90;;;;;;6194451;23;20063;-87
2022/10/04 07:57:54;;;;;;;52.17;25.92;;;9.10;99.90;;;;;;6195392;23;20044;-86
2022/10/04 08:01:05;;;;;;;58.20;27.95;;;9.10;99.90;;;;;;6215837;23;20155;-86
2022/10/04 08:04:37;;;;;;;57.80;25.52;;;9.30;99.90;;;;;;6194490;23;20031;-89
2022/10/04 08:07:48;;;;;;;43.08;23.05;;;9.30;99.90;;;;;;6196929;23;20029;-89
2022/10/04 08:10:55;;;;;;;37.58;20.23;;;9.50;99.90;;;;;;6188286;23;20099;-87
2022/10/04 08:13:59;;;;;;;30.38;19.10;;;9.60;99.90;;;;;;6187513;23;20043;-88
2022/10/04 08:17:27;;;;;;;27.10;16.42;;;9.70;99.90;;;;;;6188007;23;20033;-90
2022/10/04 08:20:45;;;;;;;22.58;14.95;;;9.90;99.90;;;;;;6188320;23;20025;-88
2022/10/04 08:23:46;;;;;;;21.77;12.25;;;10.10;99.90;;;;;;6187928;23;20096;-88
2022/10/04 08:27:25;;;;;;;19.27;11.63;;;10.40;99.90;;;;;;6190525;23;20031;-88
2022/10/04 08:30:16;;;;;;;16.80;9.82;;;10.50;99.90;;;;;;6191336;23;20049;-89
2022/10/04 08:33:21;;;;;;;16.50;9.05;;;10.60;99.90;;;;;;6195486;23;20032;-89
2022/10/04 08:36:43;;;;;;;16.17;8.95;;;10.60;99.90;;;;;;6198823;23;20021;-91
2022/10/04 08:39:34;;;;;;;17.10;8.60;;;10.80;99.90;;;;;;6204192;23;20079;-90
2022/10/04 08:42:31;;;;;;;;;;;11.00;80.30;;;;;;6208478;23;20041;-88
2022/10/04 08:45:37;;;;;;;12.68;9.32;;;11.10;1.00;;;;;;6209500;23;19996;-87
2022/10/04 08:49:15;;;;;;;14.05;9.68;;;11.20;99.90;;;;;;6197026;23;20099;-90
2022/10/04 08:52:35;;;;;;;13.88;7.70;;;11.40;99.90;;;;;;6146688;23;20389;-90
2022/10/04 08:55:43;;;;;;;12.13;6.82;;;12.20;99.90;;;;;;6139641;23;20093;-88
2022/10/04 08:58:50;;;;;;;11.80;6.65;;;12.80;1.00;;;;;;6151510;23;20030;-92
2022/10/04 09:02:15;;;;;;;10.90;6.22;;;12.90;37.60;;;;;;6165065;23;20092;-86
2022/10/04 09:05:29;;;;;;;11.13;6.68;;;13.10;1.00;;;;;;6174421;23;20036;-85
2022/10/04 09:08:46;;;;;;;9.98;5.20;;;13.30;99.90;;;;;;6170910;23;20037;-87
2022/10/04 09:11:49;;;;;;;10.35;4.95;;;13.70;99.90;;;;;;6142696;23;20033;-86
2022/10/04 09:14:55;;;;;;;;;;;14.50;99.90;;;;;;6155265;23;20026;-91
2022/10/04 09:18:13;;;;;;;8.45;3.58;;;15.30;99.90;;;;;;6162810;23;19926;-90
2022/10/04 09:21:17;;;;;;;5.93;3.90;;;16.60;99.90;;;;;;6141517;23;20067;-89
2022/10/04 09:24:58;;;;;;;9.10;4.68;;;17.40;99.90;;;;;;6233522;23;20146;-89
2022/10/04 09:28:21;;;;;;;10.07;3.92;;;18.20;99.90;;;;;;6234995;23;20096;-91
2022/10/04 09:31:38;;;;;;;6.18;2.72;;;19.20;99.90;;;;;;6233926;23;20024;-90
2022/10/04 09:34:59;;;;;;;8.13;3.00;;;19.70;99.90;;;;;;6239900;23;20068;-90
2022/10/04 09:38:34;;;;;;;6.72;2.97;;;18.60;93.60;;;;;;6231283;23;20044;-91
2022/10/04 09:41:51;;;;;;;7.13;3.10;;;18.10;92.80;;;;;;6110353;23;20042;-90
2022/10/04 09:44:53;;;;;;;8.25;2.92;;;18.20;99.90;;;;;;6200548;23;20494;-93
2022/10/04 09:47:52;;;;;;;8.32;3.40;;;18.90;98.20;;;;;;6205199;23;20123;-92
2022/10/04 09:51:12;;;;;;;5.47;3.33;;;18.60;93.30;;;;;;6227166;23;20035;-90
2022/10/04 09:54:28;;;;;;;9.27;3.15;;;18.30;99.90;;;;;;6206524;23;20032;-90
2022/10/04 09:57:53;;;;;;;8.35;3.78;;;18.80;98.70;;;;;;6197797;23;20025;-91
2022/10/04 10:00:59;;;;;;;6.85;3.33;;;19.10;99.90;;;;;;6216702;23;20312;-91
2022/10/04 10:04:24;;;;;;;7.53;3.53;;;19.10;99.90;;;;;;6195159;23;20024;-86
2022/10/04 10:07:18;;;;;;;4.97;2.70;;;19.40;85.00;;;;;;6093223;23;20022;-88
2022/10/04 10:14:16;;;;;;;6.93;2.40;;;20.60;47.70;;;;;;6214222;23;20405;-89
2022/10/04 10:17:23;;;;;;;6.78;2.35;;;20.70;50.00;;;;;;6215548;23;20029;-89
2022/10/04 10:20:38;;;;;;;4.95;2.00;;;20.90;53.60;;;;;;6193695;23;20051;-87
2022/10/04 10:23:34;;;;;;;4.68;1.77;;;21.50;41.20;;;;;;6192755;23;20031;-87
2022/10/04 10:26:45;;;;;;;3.55;1.77;;;22.20;40.30;;;;;;6214537;23;20324;-90
2022/10/04 10:29:48;;;;;;;6.25;2.00;;;23.40;21.40;;;;;;6194914;23;20029;-90
2022/10/04 10:32:35;;;;;;;5.25;2.30;;;22.20;8.30;;;;;;6214391;23;20020;-93
2022/10/04 10:35:28;;;;;;;3.47;1.70;;;21.40;5.50;;;;;;6213316;23;20041;-92
2022/10/04 10:38:24;;;;;;;5.85;1.92;;;20.80;6.20;;;;;;6193745;23;20083;-89
2022/10/04 10:41:51;;;;;;;4.13;1.63;;;21.70;11.80;;;;;;6195770;23;20490;-89
2022/10/04 10:45:00;;;;;;;3.00;1.40;;;23.40;2.60;;;;;;6216680;23;20113;-88
2022/10/04 10:47:58;;;;;;;5.00;1.70;;;25.10;1.00;;;;;;6192719;23;20028;-86
2022/10/04 10:51:09;;;;;;;3.80;1.30;;;24.60;1.00;;;;;;6201466;23;20029;-87
2022/10/04 10:54:17;;;;;;;2.90;1.52;;;24.80;1.00;;;;;;6228607;23;20032;-88
2022/10/04 10:57:09;;;;;;;3.20;1.92;;;24.20;1.00;;;;;;6182990;23;20138;-88
2022/10/04 11:00:13;;;;;;;4.63;1.63;;;24.00;1.00;;;;;;6230523;23;20059;-85
2022/10/04 11:03:16;;;;;;;3.97;1.50;;;23.70;1.00;;;;;;6231685;23;20076;-88
2022/10/04 11:06:19;;;;;;;2.95;1.25;;;24.40;1.00;;;;;;6212595;23;20052;-86
2022/10/04 11:09:24;;;;;;;2.45;1.20;;;24.50;1.00;;;;;;6215683;23;20048;-86
2022/10/04 11:12:20;;;;;;;4.88;1.65;;;25.00;1.00;;;;;;6208153;23;20024;-85
2022/10/04 11:15:38;;;;;;;3.35;1.33;;;24.40;1.00;;;;;;6202435;23;20097;-85
2022/10/04 11:18:47;;;;;;;2.88;1.30;;;24.10;1.00;;;;;;6188462;23;20055;-86
2022/10/04 11:22:12;;;;;;;4.78;1.65;;;24.60;1.00;;;;;;6191836;23;20449;-86
2022/10/04 11:25:34;;;;;;;2.92;1.40;;;24.40;1.00;;;;;;6194856;23;20032;-89
2022/10/04 11:28:45;;;;;;;2.17;1.10;;;24.20;1.00;;;;;;6186741;23;20021;-86
2022/10/04 11:32:00;;;;;;;1.95;1.30;;;25.20;1.00;;;;;;6186412;23;20328;-89
2022/10/04 11:35:22;;;;;;;2.45;1.10;;;25.70;1.00;;;;;;6186763;23;20087;-89
2022/10/04 11:38:15;;;;;;;5.63;1.20;;;26.10;1.00;;;;;;6190824;23;20075;-89
2022/10/04 11:41:09;;;;;;;5.50;1.20;;;25.90;1.00;;;;;;6187032;23;20321;-88
2022/10/04 11:44:05;;;;;;;2.97;1.40;;;25.60;1.00;;;;;;6187998;23;20029;-87
2022/10/04 11:47:06;;;;;;;3.22;1.23;;;25.80;1.00;;;;;;6187994;23;20072;-88
2022/10/04 11:50:22;;;;;;;1.88;1.40;;;26.90;1.00;;;;;;6186474;23;20452;-88
2022/10/04 11:53:32;;;;;;;2.08;1.00;;;27.10;1.00;;;;;;6183862;23;20036;-88
2022/10/04 11:56:28;;;;;;;2.70;1.23;;;26.30;1.00;;;;;;6188919;23;20025;-89
2022/10/04 11:59:39;;;;;;;3.00;1.10;;;25.40;1.00;;;;;;6187290;23;20096;-89
2022/10/04 12:03:01;;;;;;;2.63;1.30;;;25.00;1.00;;;;;;6127441;23;20018;-89
2022/10/04 12:05:51;;;;;;;2.53;1.08;;;25.50;1.00;;;;;;6186984;23;20152;-90
2022/10/04 12:08:51;;;;;;;4.63;1.38;;;26.10;1.00;;;;;;6184858;23;20072;-87
2022/10/04 12:15:02;;;;;;;2.53;1.27;;;27.40;1.00;;;;;;6216106;23;20020;-86
2022/10/04 12:18:11;;;;;;;1.27;1.05;;;26.10;1.00;;;;;;6215396;23;20017;-86
2022/10/04 12:21:19;;;;;;;3.10;1.17;;;26.30;1.00;;;;;;6218098;23;20083;-86
2022/10/04 12:24:13;;;;;;;3.20;1.23;;;26.50;1.00;;;;;;6217583;23;20363;-86
2022/10/04 12:27:29;;;;;;;2.42;0.98;;;26.30;1.00;;;;;;6217981;23;20028;-91
2022/10/04 12:30:24;;;;;;;2.72;1.20;;;25.70;1.00;;;;;;6196439;23;20297;-88
2022/10/04 12:33:11;;;;;;;1.55;1.10;;;25.90;1.00;;;;;;6196142;23;20080;-90
2022/10/04 12:36:13;;;;;;;2.40;0.73;;;27.20;1.00;;;;;;6195552;23;20024;-87
2022/10/04 12:39:33;;;;;;;1.40;1.00;;;27.90;1.00;;;;;;6216964;23;20094;-88
2022/10/04 12:42:33;;;;;;;1.08;0.80;;;27.30;1.00;;;;;;6218615;23;20029;-88
2022/10/04 12:45:23;;;;;;;0.73;0.70;;;27.80;1.00;;;;;;6215338;23;20032;-88
2022/10/04 12:48:37;;;;;;;2.83;1.00;;;28.70;1.00;;;;;;6216627;23;20116;-88
2022/10/04 12:51:58;;;;;;;1.55;1.08;;;29.00;1.00;;;;;;6216062;23;20025;-88
2022/10/04 12:55:08;;;;;;;5.78;1.17;;;28.90;1.00;;;;;;6217816;23;20036;-86
2022/10/04 12:57:59;;;;;;;2.10;0.80;;;27.80;1.00;;;;;;6218221;22;20024;-87
2022/10/04 13:00:47;;;;;;;1.70;1.05;;;28.00;1.00;;;;;;6217703;23;20363;-91
2022/10/04 13:04:04;;;;;;;3.58;0.80;;;28.70;1.00;;;;;;6217229;23;20104;-88
2022/10/04 13:07:19;;;;;;;1.10;0.80;;;29.00;1.00;;;;;;6215095;23;20031;-87
2022/10/04 13:10:43;;;;;;;3.17;1.00;;;29.90;1.00;;;;;;6197582;23;20312;-89
2022/10/04 13:13:43;;;;;;;1.70;0.77;;;29.80;1.00;;;;;;6215441;23;20025;-87
2022/10/04 13:16:36;;;;;;;3.30;0.98;;;29.80;1.00;;;;;;6216319;23;20020;-87
2022/10/04 13:20:05;;;;;;;1.33;0.80;;;30.50;1.00;;;;;;6200431;23;20301;-88
2022/10/04 13:23:29;;;;;;;2.83;0.90;;;30.50;1.00;;;;;;6215132;23;20052;-86
2022/10/04 13:26:53;;;;;;;3.20;0.80;;;30.20;1.00;;;;;;6214240;23;20024;-84
2022/10/04 13:29:51;;;;;;;1.63;0.95;;;30.20;1.00;;;;;;6212842;23;20024;-86
2022/10/04 13:32:52;;;;;;;1.80;0.75;;;30.10;1.00;;;;;;6215264;23;20106;-85
2022/10/04 13:36:05;;;;;;;1.75;1.00;;;30.20;1.00;;;;;;6215764;23;20407;-86
2022/10/04 13:38:59;;;;;;;4.97;0.77;;;31.20;1.00;;;;;;6214544;23;20395;-85
2022/10/04 13:42:07;;;;;;;4.43;0.70;;;30.40;1.00;;;;;;6214475;23;20110;-88
2022/10/04 13:45:36;;;;;;;2.25;0.82;;;30.50;1.00;;;;;;6217900;22;20499;-87
2022/10/04 13:48:42;;;;;;;1.63;0.80;;;29.50;1.00;;;;;;6216439;23;20039;-86
2022/10/04 13:51:47;;;;;;;1.80;0.98;;;29.80;1.00;;;;;;6214244;23;20538;-86
2022/10/04 13:58:24;;;;;;;2.83;1.15;;;29.90;1.00;;;;;;6215791;23;20021;-87
2022/10/04 14:01:31;;;;;;;2.70;1.00;;;30.10;1.00;;;;;;6214821;23;20024;-84
2022/10/04 14:04:49;;;;;;;1.05;0.75;;;30.40;1.00;;;;;;6193125;23;20024;-86
2022/10/04 14:07:48;;;;;;;2.78;0.82;;;30.40;1.00;;;;;;6214988;23;20024;-85
2022/10/04 14:11:00;;;;;;;3.78;0.98;;;31.10;1.00;;;;;;6216570;23;20355;-86
2022/10/04 14:14:13;;;;;;;1.98;0.98;;;30.70;1.00;;;;;;6194108;23;20413;-85
2022/10/04 14:17:27;;;;;;;1.70;0.85;;;30.00;1.00;;;;;;6212790;23;20092;-89
2022/10/04 14:20:42;;;;;;;2.30;1.00;;;29.50;1.00;;;;;;6195763;23;20025;-86
2022/10/04 14:23:55;;;;;;;2.88;0.77;;;29.80;1.00;;;;;;6192782;23;20049;-86
2022/10/04 14:26:49;;;;;;;;;;;30.60;1.00;;;;;;6194295;23;20420;-84
2022/10/04 14:30:17;;;;;;;5.20;1.10;;;30.20;1.00;;;;;;6196881;23;20177;-87
2022/10/04 14:33:43;;;;;;;2.47;0.80;;;29.90;1.00;;;;;;6194455;23;20089;-85
2022/10/04 14:36:52;;;;;;;2.50;1.10;;;31.00;1.00;;;;;;6194602;23;20021;-84
2022/10/04 14:40:11;;;;;;;3.13;1.20;;;29.90;1.00;;;;;;6215396;23;20038;-85
2022/10/04 14:43:20;;;;;;;1.90;0.93;;;28.70;1.00;;;;;;6195385;23;20039;-89
2022/10/04 14:46:27;;;;;;;2.05;1.13;;;28.10;1.00;;;;;;6195723;23;20024;-88
2022/10/04 14:49:40;;;;;;;2.42;0.95;;;28.60;1.00;;;;;;6196403;23;20035;-89
2022/10/04 14:52:52;;;;;;;2.58;1.08;;;29.00;1.00;;;;;;6195803;23;20070;-87
2022/10/04 14:55:50;;;;;;;2.83;0.85;;;28.60;1.00;;;;;;6217697;23;20044;-88
2022/10/04 14:58:47;;;;;;;1.95;0.95;;;28.80;1.00;;;;;;6227698;23;20040;-88
2022/10/04 15:01:38;;;;;;;3.42;1.17;;;28.00;1.00;;;;;;6211050;23;20028;-88
2022/10/04 15:04:36;;;;;;;3.97;1.13;;;27.90;1.00;;;;;;6236106;23;20048;-86
2022/10/04 15:07:36;;;;;;;2.75;1.10;;;27.90;1.00;;;;;;6232239;23;20048;-89
2022/10/04 15:10:26;;;;;;;2.22;0.90;;;27.50;1.00;;;;;;6226374;23;20055;-87
2022/10/04 15:13:34;;;;;;;1.92;1.35;;;27.70;1.00;;;;;;6221963;23;20035;-88
2022/10/04 15:16:39;;;;;;;2.17;1.10;;;27.50;1.00;;;;;;6196961;23;20025;-88
2022/10/04 15:19:31;;;;;;;3.00;1.25;;;27.20;1.00;;;;;;6217244;23;20020;-87
2022/10/04 15:22:26;;;;;;;;;;;27.10;1.00;;;;;;6217566;23;20047;-88
2022/10/04 15:25:41;;;;;;;1.80;1.13;;;26.10;1.00;;;;;;6196847;23;19958;-87
2022/10/04 15:28:49;;;;;;;4.43;1.25;;;26.00;1.00;;;;;;6217622;23;20396;-87
2022/10/04 15:31:45;;;;;;;6.68;1.77;;;25.60;1.00;;;;;;6175650;23;20412;-87
2022/10/04 15:35:29;;;;;;;5.93;1.60;;;25.40;1.00;;;;;;6217479;23;20032;-88
2022/10/04 15:38:36;;;;;;;6.20;1.55;;;25.50;1.00;;;;;;6098366;23;20085;-89
2022/10/04 15:41:38;;;;;;;5.75;1.55;;;25.20;1.00;;;;;;6200046;23;20124;-90
2022/10/04 15:44:44;;;;;;;4.70;2.20;;;24.70;1.00;;;;;;6196784;23;20043;-88
2022/10/04 15:47:56;;;;;;;2.03;1.35;;;24.30;1.00;;;;;;6197307;23;20052;-86
2022/10/04 15:51:13;;;;;;;5.10;1.88;;;24.00;1.00;;;;;;6217489;23;20063;-89
2022/10/04 15:54:42;;;;;;;1.98;1.55;;;23.40;1.00;;;;;;6219682;23;20032;-87
2022/10/04 15:58:03;;;;;;;4.50;1.90;;;22.90;1.00;;;;;;6176048;23;20034;-86
2022/10/04 16:01:00;;;;;;;2.72;1.40;;;22.60;1.00;;;;;;6224022;23;20389;-87
2022/10/04 16:03:53;;;;;;;4.93;1.75;;;22.20;1.00;;;;;;6207752;23;20459;-88
2022/10/04 16:06:53;;;;;;;2.53;1.42;;;22.20;1.00;;;;;;6232308;23;20081;-88
2022/10/04 16:10:01;;;;;;;5.70;1.65;;;22.00;1.00;;;;;;6202886;23;20341;-87
2022/10/04 16:13:18;;;;;;;4.40;1.63;;;21.70;1.00;;;;;;6221149;23;20041;-88
2022/10/04 16:16:16;;;;;;;2.92;1.70;;;21.40;1.00;;;;;;6222696;23;20024;-87
2022/10/04 16:19:29;;;;;;;5.35;1.63;;;21.00;1.00;;;;;;6196183;23;20383;-87
2022/10/04 16:22:21;;;;;;;4.50;1.88;;;20.30;1.00;;;;;;6218847;23;20028;-89
2022/10/04 16:25:26;;;;;;;7.25;2.03;;;19.10;1.00;;;;;;6217286;23;20024;-88
2022/10/04 16:28:48;;;;;;;11.20;2.40;;;18.20;1.00;;;;;;6217982;23;20447;-88
2022/10/04 16:31:56;;;;;;;5.93;2.42;;;17.50;1.00;;;;;;6198038;23;20028;-89
2022/10/04 16:34:58;;;;;;;5.95;2.60;;;16.90;16.90;;;;;;6196925;23;20371;-88
2022/10/04 16:37:59;;;;;;;5.63;2.40;;;16.50;49.90;;;;;;6194728;23;20166;-88
2022/10/04 16:40:52;;;;;;;7.30;2.55;;;16.10;95.10;;;;;;6216670;23;20079;-88
2022/10/04 16:43:53;;;;;;;4.68;2.40;;;15.80;99.90;;;;;;6217023;23;20075;-85
2022/10/04 16:46:43;;;;;;;5.80;2.33;;;15.50;99.90;;;;;;6221221;22;20075;-90
2022/10/04 16:49:52;;;;;;;3.33;2.60;;;15.30;99.90;;;;;;6215038;23;20021;-87
2022/10/04 16:52:57;;;;;;;8.23;2.90;;;15.10;99.90;;;;;;6219695;23;20021;-88
2022/10/04 16:55:55;;;;;;;8.32;2.85;;;15.00;99.90;;;;;;6196806;23;20405;-88
2022/10/04 16:58:55;;;;;;;7.82;3.15;;;14.80;99.90;;;;;;6219916;23;20020;-89
2022/10/04 17:02:21;;;;;;;6.07;2.83;;;14.70;99.90;;;;;;6216650;23;20107;-88
2022/10/04 17:05:36;;;;;;;7.25;3.40;;;14.50;99.90;;;;;;6215887;23;20316;-88
2022/10/04 17:09:03;;;;;;;8.48;3.28;;;14.30;99.90;;;;;;6194421;23;20055;-87
2022/10/04 17:12:02;;;;;;;8.07;3.33;;;14.10;99.90;;;;;;6215451;23;20412;-87
2022/10/04 17:15:05;;;;;;;8.02;3.47;;;13.80;99.90;;;;;;6218162;23;20063;-88
2022/10/04 17:17:59;;;;;;;6.30;3.88;;;13.60;99.90;;;;;;6219039;23;20031;-87